Terminal Aerodrome Forecast
Issued by NWS Grand Junction, CO

Home | Current Version | Previous Version | Text Only | Print | Product List | Glossary On
Versions: 1 2 3 4 5 6 7 8 9 10 11 12 13
000
FTUS45 KGJT 290541
TAFGJT
TAF
KGJT 290541Z 2906/3006 11008KT P6SM SKC
     FM291600 15006KT P6SM FEW120
     FM292000 30007KT P6SM SCT120
     FM300200 03005KT P6SM FEW120
     FM300500 09006KT P6SM SKC=

USA.gov is the U.S. government's official web portal to all federal, state and local government web resources and services.